Time;durP1;ratioP1;P1;durP2;ratioP2;P2;SDS_P1;SDS_P2;PMS_P1;PMS_P2;Temp;Humidity;BMP_temperature;BMP_pressure;BME280_temperature;BME280_humidity;BME280_pressure;Samples;Min_cycle;Max_cycle;Signal;HPM_P1;HPM_P2
2023/12/09 00:01:23;;;;;;;47.85;22.63;;;4.00;99.90;;;4.58;100.00;100330.50;5028019;28;20068;-81
2023/12/09 00:03:49;;;;;;;54.65;23.13;;;4.00;99.90;;;4.61;100.00;100337.44;5033132;28;20041;-81
2023/12/09 00:06:14;;;;;;;49.47;23.13;;;4.00;99.90;;;4.64;100.00;100328.09;5028060;28;20088;-80
2023/12/09 00:08:40;;;;;;;50.67;22.30;;;4.00;99.90;;;4.64;100.00;100345.16;5029849;28;20038;-80
2023/12/09 00:11:07;;;;;;;46.95;22.50;;;4.00;99.90;;;4.66;100.00;100348.50;5033566;28;20038;-80
2023/12/09 00:13:32;;;;;;;49.15;23.00;;;4.00;99.90;;;4.59;100.00;100343.00;5030365;28;20034;-80
2023/12/09 00:15:59;;;;;;;49.03;23.70;;;4.00;99.90;;;4.62;100.00;100333.69;5026284;28;20551;-80
2023/12/09 00:18:25;;;;;;;52.83;23.67;;;4.10;99.90;;;4.70;100.00;100338.19;5014570;28;20045;-81
2023/12/09 00:20:50;;;;;;;50.50;23.98;;;4.10;99.90;;;4.78;100.00;100334.56;5021430;28;20041;-81
2023/12/09 00:23:16;;;;;;;49.65;22.63;;;4.10;99.90;;;4.74;100.00;100340.31;5030912;28;20087;-81
2023/12/09 00:25:42;;;;;;;44.20;22.60;;;4.10;99.90;;;4.74;100.00;100324.09;5026410;28;20037;-80
2023/12/09 00:28:08;;;;;;;56.38;23.52;;;4.10;99.90;;;4.86;100.00;100339.84;5025863;28;20042;-81
2023/12/09 00:30:33;;;;;;;51.40;23.83;;;4.20;99.90;;;4.74;100.00;100334.91;5027496;28;20095;-81
2023/12/09 00:33:00;;;;;;;44.50;22.67;;;4.20;99.90;;;4.72;100.00;100344.25;5028001;28;20034;-81
2023/12/09 00:35:26;;;;;;;48.63;22.52;;;4.20;99.90;;;4.74;100.00;100348.41;5032958;28;20046;-80
2023/12/09 00:37:51;;;;;;;47.03;22.50;;;4.30;99.90;;;4.92;100.00;100341.81;5026080;28;20397;-80
2023/12/09 00:40:18;;;;;;;45.15;21.58;;;4.30;99.90;;;4.79;100.00;100331.66;5030754;28;20390;-80
2023/12/09 00:42:46;;;;;;;45.92;22.70;;;4.30;99.90;;;4.86;100.00;100347.97;5032911;28;20112;-80
2023/12/09 00:45:13;;;;;;;;;;;4.30;99.90;;;4.87;100.00;100345.06;5031213;28;20041;-81
2023/12/09 00:47:39;;;;;;;46.60;20.55;;;4.30;99.90;;;4.79;100.00;100341.63;5032361;28;19921;-80
2023/12/09 00:50:05;;;;;;;45.50;21.13;;;4.30;99.90;;;4.74;100.00;100345.72;5025939;28;20037;-81
2023/12/09 00:52:31;;;;;;;44.63;22.25;;;4.30;99.90;;;4.67;100.00;100342.09;5031166;28;20037;-80
2023/12/09 00:54:57;;;;;;;46.60;21.38;;;4.20;99.90;;;4.69;100.00;100345.44;5028284;28;20502;-79
2023/12/09 00:57:24;;;;;;;42.88;20.83;;;4.30;99.90;;;4.63;100.00;100343.47;5024881;28;20120;-81
2023/12/09 00:59:50;;;;;;;40.40;20.95;;;4.30;99.90;;;4.69;100.00;100329.22;5027107;28;20173;-81
2023/12/09 01:02:16;;;;;;;44.70;22.10;;;4.30;99.90;;;4.74;100.00;100339.47;5021780;28;20045;-80
2023/12/09 01:04:43;;;;;;;39.13;19.73;;;4.30;99.90;;;4.82;100.00;100338.56;5023494;28;20040;-80
2023/12/09 01:07:08;;;;;;;36.85;19.15;;;4.30;99.90;;;4.64;100.00;100338.91;5030230;28;20524;-80
2023/12/09 01:09:34;;;;;;;43.65;21.00;;;4.30;99.90;;;4.67;100.00;100331.28;5031759;28;20037;-80
2023/12/09 01:12:01;;;;;;;38.13;18.17;;;4.30;99.90;;;4.35;100.00;100325.19;5021210;28;20048;-81
2023/12/09 01:14:26;;;;;;;35.70;19.20;;;4.30;99.90;;;4.16;100.00;100330.06;5022889;28;20045;-80
2023/12/09 01:16:52;;;;;;;38.20;18.08;;;4.20;99.90;;;4.23;100.00;100332.03;5043418;28;20041;-80
2023/12/09 01:19:18;;;;;;;38.15;17.33;;;4.10;99.90;;;4.22;100.00;100328.50;5030749;28;20494;-80
2023/12/09 01:21:43;;;;;;;36.40;17.08;;;4.10;99.90;;;4.10;100.00;100319.16;5026237;28;20039;-80
2023/12/09 01:24:09;;;;;;;36.83;17.23;;;4.10;99.90;;;4.20;100.00;100330.56;5031139;28;20093;-80
2023/12/09 01:26:35;;;;;;;39.65;19.02;;;4.00;99.90;;;4.14;100.00;100336.69;5020226;28;20030;-80
2023/12/09 01:29:03;;;;;;;41.05;17.55;;;;;;;4.19;100.00;100336.97;5029720;28;20041;-81
2023/12/09 01:31:30;;;;;;;32.92;17.35;;;4.00;99.90;;;4.18;100.00;100341.53;5018109;28;20498;-81
2023/12/09 01:33:56;;;;;;;36.10;16.63;;;3.90;99.90;;;4.16;100.00;100340.88;5023212;28;20052;-81
2023/12/09 01:36:21;;;;;;;34.28;16.13;;;3.90;99.90;;;4.18;100.00;100341.53;5026999;28;20485;-80
2023/12/09 01:38:47;;;;;;;36.08;16.85;;;4.00;99.90;;;4.16;100.00;100345.44;5031278;28;20033;-81
2023/12/09 01:41:13;;;;;;;34.20;16.50;;;4.00;99.90;;;4.30;100.00;100354.63;5031504;28;20033;-80
2023/12/09 01:43:38;;;;;;;34.45;16.15;;;4.00;99.90;;;4.35;100.00;100348.63;5025449;28;20048;-80
2023/12/09 01:46:11;;;;;;;33.45;16.65;;;4.00;99.90;;;4.44;100.00;100350.25;5029651;28;20087;-80
2023/12/09 01:48:40;;;;;;;30.17;15.48;;;4.00;99.90;;;4.44;100.00;100356.50;5015912;28;20037;-81
2023/12/09 01:51:07;;;;;;;32.05;16.92;;;4.00;99.90;;;4.25;100.00;100351.63;5039121;28;20455;-81
2023/12/09 01:53:35;;;;;;;34.25;16.17;;;4.00;99.90;;;4.49;100.00;100357.78;5016644;28;20120;-81
2023/12/09 01:56:09;;;;;;;34.90;17.63;;;4.00;99.90;;;4.56;100.00;100361.47;5025682;28;20038;-81
2023/12/09 01:58:37;;;;;;;35.40;17.23;;;3.90;99.90;;;4.65;100.00;100351.41;5017255;28;20048;-81
2023/12/09 02:01:04;;;;;;;36.03;17.38;;;3.90;99.90;;;4.30;100.00;100362.72;5026658;28;20492;-81
2023/12/09 02:03:31;;;;;;;36.90;17.77;;;3.90;99.90;;;4.25;100.00;100355.16;5020943;28;20029;-81
2023/12/09 02:05:57;;;;;;;35.38;17.90;;;3.90;99.90;;;4.25;100.00;100341.66;5022301;28;20531;-81
2023/12/09 02:08:23;;;;;;;33.53;16.75;;;4.00;99.90;;;4.28;100.00;100345.84;5017271;28;20041;-81
2023/12/09 02:11:06;;;;;;;38.88;17.52;;;4.00;99.90;;;4.30;100.00;100343.81;5026161;28;20383;-81
2023/12/09 02:13:58;;;;;;;36.17;17.75;;;4.10;99.90;;;4.37;100.00;100350.16;5026421;28;20124;-80
2023/12/09 02:17:00;;;;;;;37.45;18.50;;;4.10;99.90;;;4.41;100.00;100347.94;5025243;28;20056;-82
2023/12/09 02:19:27;;;;;;;33.55;16.98;;;4.10;99.90;;;4.57;100.00;100349.63;5029740;28;20064;-81
2023/12/09 02:22:10;;;;;;;31.35;16.25;;;4.10;99.90;;;4.63;100.00;100357.00;5026202;28;20041;-82
2023/12/09 02:24:36;;;;;;;29.20;15.77;;;4.10;99.90;;;4.73;100.00;100349.44;5026563;28;20401;-81
2023/12/09 02:27:18;;;;;;;32.00;15.23;;;4.20;99.90;;;4.79;100.00;100344.34;5018793;28;20040;-81
2023/12/09 02:29:53;;;;;;;30.08;15.65;;;4.20;99.90;;;4.84;100.00;100358.94;5021213;28;20025;-81
2023/12/09 02:32:23;;;;;;;30.20;15.80;;;4.20;99.90;;;4.78;100.00;100350.78;5030375;28;20076;-81
2023/12/09 02:34:51;;;;;;;29.88;15.77;;;4.30;99.90;;;4.86;100.00;100353.38;5036409;28;20428;-81
2023/12/09 02:37:20;;;;;;;30.10;15.88;;;4.30;99.90;;;4.77;100.00;100349.06;5030274;28;20121;-81
2023/12/09 02:39:47;;;;;;;28.42;14.77;;;4.30;99.90;;;4.79;100.00;100358.69;5018897;28;20478;-80
2023/12/09 02:42:14;;;;;;;29.17;14.70;;;4.40;99.90;;;4.73;100.00;100354.84;5029994;28;20044;-81
2023/12/09 02:44:42;;;;;;;30.23;14.50;;;4.40;99.90;;;4.73;100.00;100354.84;5015897;28;20489;-81
2023/12/09 02:47:12;;;;;;;;;;;4.40;99.90;;;4.72;100.00;100358.56;5028781;28;20045;-81
2023/12/09 02:49:38;;;;;;;27.73;14.80;;;4.40;99.90;;;4.64;100.00;100353.25;5014826;28;19921;-81
2023/12/09 02:52:04;;;;;;;26.88;14.73;;;4.40;99.90;;;4.61;100.00;100353.63;5018796;28;20444;-80
2023/12/09 02:54:30;;;;;;;28.77;15.10;;;4.40;99.90;;;4.61;100.00;100353.63;5019669;28;20037;-81
2023/12/09 02:56:56;;;;;;;30.60;15.27;;;4.40;99.90;;;4.55;100.00;100341.69;5020588;28;20041;-81
2023/12/09 02:59:22;;;;;;;30.48;15.95;;;4.40;99.90;;;4.55;100.00;100346.28;5032643;28;20464;-81
2023/12/09 03:01:47;;;;;;;29.55;15.35;;;4.30;99.90;;;4.42;100.00;100336.94;5018663;28;20042;-80
2023/12/09 03:04:14;;;;;;;28.58;15.45;;;4.30;99.90;;;4.57;100.00;100345.03;5012845;28;20470;-80
2023/12/09 03:06:39;;;;;;;30.95;15.02;;;4.30;99.90;;;4.51;100.00;100336.84;5023967;28;20044;-81
2023/12/09 03:09:05;;;;;;;32.22;15.18;;;4.30;99.90;;;4.48;100.00;100338.06;5022841;28;20345;-80
2023/12/09 03:11:31;;;;;;;28.10;15.63;;;4.30;99.90;;;4.56;100.00;100323.63;5018052;28;20046;-81
2023/12/09 03:13:56;;;;;;;26.20;14.75;;;4.30;99.90;;;4.46;100.00;100332.81;5026726;28;20449;-81
2023/12/09 03:16:22;;;;;;;26.80;14.82;;;4.30;99.90;;;4.46;100.00;100315.78;5014256;28;20515;-81
2023/12/09 03:18:48;;;;;;;26.67;13.75;;;4.30;99.90;;;4.59;100.00;100315.16;5021593;28;20049;-81
2023/12/09 03:21:17;;;;;;;27.98;14.25;;;4.30;99.90;;;4.67;100.00;100317.75;5033823;28;20069;-81
2023/12/09 03:23:43;;;;;;;25.63;13.52;;;4.30;99.90;;;4.57;100.00;100309.09;5015661;28;20037;-81
2023/12/09 03:26:19;;;;;;;26.35;13.82;;;4.40;99.90;;;4.65;100.00;100317.09;5022920;28;20087;-81
2023/12/09 03:28:45;;;;;;;24.52;13.10;;;;;;;4.60;100.00;100322.25;5030164;28;20037;-81
2023/12/09 03:31:14;;;;;;;26.38;14.07;;;4.40;99.90;;;4.68;100.00;100324.00;5011383;28;20038;-81
2023/12/09 03:33:41;;;;;;;25.17;13.07;;;4.30;99.90;;;4.65;100.00;100319.81;5024617;28;20343;-82
2023/12/09 03:36:11;;;;;;;27.35;14.13;;;4.40;99.90;;;4.72;100.00;100328.03;5026537;28;20524;-81
2023/12/09 03:38:37;;;;;;;23.17;13.32;;;4.40;99.90;;;4.74;100.00;100329.50;5023646;28;20030;-80
2023/12/09 03:41:04;;;;;;;26.75;14.40;;;4.40;99.90;;;4.80;100.00;100321.69;5017511;28;20485;-80
2023/12/09 03:43:31;;;;;;;28.50;14.30;;;4.40;99.90;;;4.78;100.00;100321.03;5029744;28;20033;-80
2023/12/09 03:45:58;;;;;;;25.40;13.80;;;4.40;99.90;;;4.53;100.00;100319.44;5029003;28;20056;-80
2023/12/09 03:48:24;;;;;;;25.55;13.70;;;4.40;99.90;;;4.49;100.00;100309.16;5024247;28;20485;-80
2023/12/09 03:50:50;;;;;;;27.33;13.55;;;4.30;99.90;;;4.60;100.00;100306.84;5013807;28;20040;-80
2023/12/09 03:53:15;;;;;;;27.70;14.68;;;4.30;99.90;;;4.57;100.00;100303.69;5026924;28;20037;-80
2023/12/09 03:55:41;;;;;;;25.90;13.85;;;4.30;99.90;;;4.60;100.00;100300.63;5019073;28;20473;-80
2023/12/09 03:58:08;;;;;;;25.25;13.88;;;4.30;99.90;;;4.53;100.00;100294.28;5012230;28;20066;-80
2023/12/09 04:00:35;;;;;;;25.48;13.57;;;4.20;99.90;;;4.54;100.00;100295.97;5019684;28;20049;-80
2023/12/09 04:03:00;;;;;;;26.75;13.73;;;4.20;99.90;;;4.52;100.00;100277.22;5028834;28;20029;-81
2023/12/09 04:05:26;;;;;;;27.45;14.18;;;4.20;99.90;;;4.60;100.00;100289.81;5032520;28;20388;-81
2023/12/09 04:07:52;;;;;;;26.27;13.52;;;4.20;99.90;;;4.59;100.00;100286.25;5023934;28;20207;-80
2023/12/09 04:10:17;;;;;;;27.13;13.63;;;4.20;99.90;;;4.55;100.00;100279.56;5028994;28;20041;-80
2023/12/09 04:12:44;;;;;;;23.38;12.23;;;4.20;99.90;;;4.50;100.00;100273.88;5015584;28;20040;-80
2023/12/09 04:15:11;;;;;;;27.73;12.40;;;4.20;99.90;;;4.43;100.00;100276.47;5023267;28;20033;-80
2023/12/09 04:17:37;;;;;;;23.38;13.32;;;4.20;99.90;;;4.50;100.00;100287.38;5032444;28;20044;-80
2023/12/09 04:20:08;;;;;;;26.70;12.85;;;4.10;99.90;;;4.41;100.00;100280.41;5027733;28;20029;-80
2023/12/09 04:22:37;;;;;;;24.77;12.02;;;4.10;99.90;;;4.48;100.00;100286.72;5026833;28;20108;-80
2023/12/09 04:25:04;;;;;;;23.70;11.73;;;4.10;99.90;;;4.46;100.00;100280.69;5029505;28;20034;-81
2023/12/09 04:27:34;;;;;;;20.40;11.23;;;4.10;99.90;;;4.41;100.00;100270.41;5032202;28;20124;-81
2023/12/09 04:30:04;;;;;;;25.92;12.32;;;4.20;99.90;;;4.60;100.00;100276.31;5039208;28;20038;-82
2023/12/09 04:32:31;;;;;;;22.00;11.10;;;4.30;99.90;;;4.58;100.00;100283.75;5024267;28;20508;-82
2023/12/09 04:34:58;;;;;;;21.48;10.27;;;4.30;99.90;;;4.76;100.00;100283.38;5028261;28;20068;-81
2023/12/09 04:37:24;;;;;;;20.63;9.70;;;4.30;99.90;;;4.74;100.00;100280.03;5034352;28;20160;-82
2023/12/09 04:39:51;;;;;;;22.80;9.95;;;4.40;99.90;;;4.80;100.00;100281.16;5018354;28;20148;-82
2023/12/09 04:42:18;;;;;;;19.48;9.85;;;4.50;99.90;;;4.92;100.00;100276.91;5024449;28;20049;-81
2023/12/09 04:44:43;;;;;;;22.50;10.10;;;4.60;99.90;;;4.93;100.00;100273.19;5026762;28;20179;-81
2023/12/09 04:47:09;;;;;;;18.63;9.55;;;4.60;99.90;;;4.99;100.00;100271.59;5020216;28;20049;-81
2023/12/09 04:49:35;;;;;;;20.67;9.32;;;4.60;99.90;;;4.94;100.00;100274.03;5023038;28;20486;-81
2023/12/09 04:52:01;;;;;;;19.52;9.55;;;4.50;99.90;;;4.87;100.00;100269.38;5020307;28;20444;-81
2023/12/09 04:54:26;;;;;;;17.08;8.90;;;4.60;99.90;;;4.93;100.00;100267.78;5027707;28;20049;-81
2023/12/09 04:56:52;;;;;;;19.75;8.85;;;4.60;99.90;;;4.98;100.00;100270.75;5025632;28;20087;-81
2023/12/09 04:59:18;;;;;;;15.63;8.43;;;4.70;99.90;;;4.93;100.00;100259.66;5025874;28;20048;-81
2023/12/09 05:01:45;;;;;;;20.40;9.10;;;4.60;99.90;;;4.83;100.00;100265.38;5016178;28;20030;-81
2023/12/09 05:04:11;;;;;;;17.98;8.50;;;4.50;99.90;;;4.78;100.00;100259.69;5023040;28;20072;-81
2023/12/09 05:06:36;;;;;;;18.60;9.07;;;4.40;99.90;;;4.79;100.00;100265.97;5039894;28;20068;-81
2023/12/09 05:09:02;;;;;;;15.90;8.05;;;4.30;99.90;;;4.70;100.00;100268.75;5026376;28;20142;-81
2023/12/09 05:11:28;;;;;;;19.00;8.48;;;4.30;99.90;;;4.72;100.00;100272.09;5028310;28;20037;-81
2023/12/09 05:13:54;;;;;;;18.75;9.20;;;4.20;99.90;;;4.71;100.00;100262.31;5014411;28;20496;-81
2023/12/09 05:16:20;;;;;;;21.27;9.23;;;4.20;99.90;;;4.56;100.00;100261.50;5025284;28;20038;-81
2023/12/09 05:18:45;;;;;;;18.15;9.90;;;4.20;99.90;;;4.80;100.00;100273.84;5031111;28;20037;-81
2023/12/09 05:21:12;;;;;;;19.58;10.40;;;4.20;99.90;;;4.75;100.00;100274.41;5031447;28;20064;-81
2023/12/09 05:23:38;;;;;;;19.73;10.30;;;4.20;99.90;;;4.65;100.00;100265.75;5027371;28;20139;-82
2023/12/09 05:26:04;;;;;;;20.67;9.25;;;4.30;99.90;;;4.65;100.00;100254.94;5030475;28;20061;-81
2023/12/09 05:28:30;;;;;;;20.40;10.52;;;4.30;99.90;;;4.74;100.00;100259.22;5019929;28;20069;-81
2023/12/09 05:30:56;;;;;;;22.73;10.57;;;4.30;99.90;;;4.71;100.00;100248.78;5027506;28;20033;-80
2023/12/09 05:33:22;;;;;;;25.80;11.68;;;4.30;99.90;;;4.72;100.00;100255.88;5025912;28;20038;-80
2023/12/09 05:35:48;;;;;;;20.00;10.73;;;4.30;99.90;;;4.61;100.00;100250.97;5031539;28;20056;-81
2023/12/09 05:38:14;;;;;;;17.52;9.88;;;4.30;99.90;;;4.71;100.00;100248.78;5035196;28;20080;-80
2023/12/09 05:40:40;;;;;;;19.40;11.10;;;4.30;99.90;;;4.69;100.00;100268.94;5018812;28;20044;-80
2023/12/09 05:43:05;;;;;;;22.17;10.82;;;4.30;99.90;;;4.64;100.00;100249.72;5042104;28;20044;-80
2023/12/09 05:45:31;;;;;;;18.67;9.63;;;4.30;99.90;;;4.60;100.00;100257.38;5018004;28;20045;-81
2023/12/09 05:47:57;;;;;;;19.75;10.43;;;4.20;99.90;;;4.66;100.00;100245.81;5020070;28;20038;-81
2023/12/09 05:50:23;;;;;;;21.00;11.05;;;4.20;99.90;;;4.59;100.00;100244.91;5022837;28;20037;-81
2023/12/09 05:52:48;;;;;;;16.95;9.73;;;4.20;99.90;;;4.63;100.00;100238.09;5027627;28;20091;-81
2023/12/09 05:55:16;;;;;;;20.20;9.90;;;4.10;99.90;;;4.56;100.00;100245.28;5031433;28;20053;-81
2023/12/09 05:57:42;;;;;;;19.83;10.43;;;4.10;99.90;;;4.52;100.00;100246.69;5028730;28;20041;-81
2023/12/09 06:00:11;;;;;;;22.15;9.75;;;4.00;99.90;;;4.50;100.00;100249.56;5025464;28;20045;-81
2023/12/09 06:02:40;;;;;;;19.95;10.40;;;4.00;99.90;;;4.45;100.00;100244.72;5019490;28;20130;-81
2023/12/09 06:05:06;;;;;;;20.35;9.98;;;4.00;99.90;;;4.47;100.00;100261.56;5024241;28;20084;-81
2023/12/09 06:07:32;;;;;;;18.15;9.82;;;4.00;99.90;;;4.44;100.00;100255.72;5028859;28;20124;-81
2023/12/09 06:09:58;;;;;;;22.23;10.13;;;4.00;99.90;;;4.45;100.00;100260.91;5012866;28;20045;-81
2023/12/09 06:12:23;;;;;;;21.25;9.73;;;4.00;99.90;;;4.40;100.00;100252.53;5027188;28;20129;-81
2023/12/09 06:14:49;;;;;;;20.55;10.07;;;4.10;99.90;;;4.45;100.00;100246.59;5019144;28;20040;-81
2023/12/09 06:17:15;;;;;;;17.02;9.80;;;4.10;99.90;;;4.40;100.00;100247.13;5024645;28;20071;-82
2023/12/09 06:19:41;;;;;;;19.83;9.60;;;4.00;99.90;;;4.32;100.00;100244.53;5024060;28;20034;-81
2023/12/09 06:22:07;;;;;;;17.15;8.73;;;4.00;99.90;;;4.25;100.00;100243.59;5024145;28;20044;-81
2023/12/09 06:24:32;;;;;;;20.80;8.80;;;4.00;99.90;;;4.28;100.00;100240.53;5029722;28;20048;-81
2023/12/09 06:26:58;;;;;;;17.08;9.15;;;4.00;99.90;;;4.34;100.00;100247.88;5028435;28;20072;-81
2023/12/09 06:29:24;;;;;;;18.88;9.05;;;4.00;99.90;;;4.29;100.00;100242.22;5020466;28;20087;-81
2023/12/09 06:31:49;;;;;;;19.50;9.05;;;4.00;99.90;;;4.20;100.00;100246.84;5023016;28;20029;-80
2023/12/09 06:34:15;;;;;;;17.20;8.45;;;4.00;99.90;;;4.14;100.00;100231.41;5018454;28;20040;-81
2023/12/09 06:36:41;;;;;;;17.58;8.73;;;4.00;99.90;;;4.20;100.00;100238.75;5020482;28;20045;-81
2023/12/09 06:39:07;;;;;;;16.20;8.40;;;3.90;99.90;;;4.10;100.00;100241.72;5016038;28;20042;-80
2023/12/09 06:41:33;;;;;;;23.13;9.07;;;3.90;99.90;;;4.07;100.00;100231.28;5030512;28;20045;-80
2023/12/09 06:43:58;;;;;;;18.17;8.88;;;3.90;99.90;;;4.17;100.00;100242.63;5021817;28;20042;-81
2023/12/09 06:46:24;;;;;;;20.05;8.80;;;3.80;99.90;;;4.05;100.00;100232.47;5028540;28;20042;-81
2023/12/09 06:48:50;;;;;;;20.67;8.88;;;3.80;99.90;;;4.05;100.00;100244.13;5021491;28;20041;-81
2023/12/09 06:51:16;;;;;;;16.70;8.73;;;3.70;99.90;;;3.88;100.00;100238.06;5022514;28;20042;-81
2023/12/09 06:53:43;;;;;;;20.85;9.35;;;3.60;99.90;;;3.92;100.00;100233.97;5028375;28;20041;-81
2023/12/09 06:56:18;;;;;;;20.98;8.13;;;3.60;99.90;;;4.09;100.00;100240.03;5027639;28;20125;-82
2023/12/09 06:58:44;;;;;;;18.13;8.10;;;3.70;99.90;;;4.15;100.00;100247.38;5029922;28;20044;-81
2023/12/09 07:01:21;;;;;;;18.38;8.30;;;3.80;99.90;;;4.17;100.00;100242.63;5037192;28;20042;-81
2023/12/09 07:03:48;;;;;;;17.85;9.40;;;3.80;99.90;;;3.97;100.00;100236.09;5020179;28;20033;-81
2023/12/09 07:06:17;;;;;;;18.83;9.57;;;3.70;99.90;;;3.85;100.00;100241.13;5027389;28;20049;-81
2023/12/09 07:08:44;;;;;;;21.33;9.93;;;3.60;99.90;;;3.92;100.00;100252.84;5019186;28;21024;-81
2023/12/09 07:11:10;;;;;;;16.17;9.30;;;3.50;99.90;;;3.93;100.00;100248.28;5029716;28;20040;-81
2023/12/09 07:13:35;;;;;;;21.85;9.35;;;3.40;99.90;;;3.87;100.00;100261.50;5030250;28;20065;-81
2023/12/09 07:16:03;;;;;;;20.67;9.48;;;3.30;99.90;;;3.79;100.00;100242.69;5025851;28;20041;-81
2023/12/09 07:18:28;;;;;;;20.40;9.25;;;3.30;99.90;;;3.87;100.00;100256.09;5011935;28;20080;-81
2023/12/09 07:20:54;;;;;;;17.95;9.32;;;3.30;99.90;;;3.74;100.00;100245.09;5022182;28;20512;-81
2023/12/09 07:23:20;;;;;;;21.40;9.43;;;3.30;99.90;;;3.79;100.00;100245.38;5021829;28;20037;-81
2023/12/09 07:25:46;;;;;;;18.73;9.77;;;3.30;99.90;;;3.64;100.00;100233.69;5029103;28;20051;-80
2023/12/09 07:28:11;;;;;;;20.08;9.70;;;3.30;99.90;;;3.43;100.00;100233.34;5024264;28;20041;-80
2023/12/09 07:30:37;;;;;;;22.15;10.02;;;3.30;99.90;;;3.55;100.00;100228.38;5024436;28;20037;-80
2023/12/09 07:33:03;;;;;;;19.92;9.95;;;3.40;99.90;;;3.60;100.00;100217.88;5018009;28;20041;-79
2023/12/09 07:35:28;;;;;;;16.85;8.80;;;3.40;99.90;;;3.54;100.00;100215.91;5029774;28;20037;-80
2023/12/09 07:37:55;;;;;;;19.05;10.15;;;3.40;99.90;;;3.28;100.00;100190.16;5019968;28;20044;-80
2023/12/09 07:40:20;;;;;;;17.58;9.25;;;3.40;99.90;;;3.34;100.00;100214.72;5022207;28;20468;-80
2023/12/09 07:42:46;;;;;;;19.67;9.07;;;3.30;99.90;;;3.20;100.00;100195.59;5020834;28;20041;-80
2023/12/09 07:45:12;;;;;;;19.80;8.75;;;3.30;99.90;;;3.37;100.00;100198.16;5022166;28;20043;-80
2023/12/09 07:47:38;;;;;;;16.50;8.15;;;3.30;99.90;;;3.43;100.00;100187.50;5029636;28;20441;-80
2023/12/09 07:50:04;;;;;;;16.13;8.65;;;3.40;99.90;;;3.58;100.00;100187.53;5012802;28;20038;-80
2023/12/09 07:52:30;;;;;;;14.50;8.00;;;3.40;99.90;;;3.64;100.00;100182.44;5029077;28;20177;-80
2023/12/09 07:54:55;;;;;;;18.08;8.43;;;3.50;99.90;;;3.79;100.00;100187.84;5029212;28;20588;-80
2023/12/09 07:57:21;;;;;;;19.27;8.85;;;3.60;99.90;;;3.88;100.00;100195.69;5021343;28;20037;-80
2023/12/09 07:59:47;;;;;;;19.83;10.40;;;3.60;99.90;;;3.70;100.00;100187.94;5015356;28;20049;-81
2023/12/09 08:02:13;;;;;;;20.58;10.23;;;3.60;99.90;;;3.47;100.00;100158.31;5029643;28;20064;-80
2023/12/09 08:04:38;;;;;;;18.80;9.85;;;3.50;99.90;;;3.66;100.00;100191.19;5025225;28;20041;-80
2023/12/09 08:07:04;;;;;;;21.60;9.57;;;3.50;99.90;;;3.65;100.00;100176.00;5032975;28;20041;-79
2023/12/09 08:09:30;;;;;;;17.33;8.57;;;3.40;99.90;;;3.70;100.00;100170.91;5033096;28;20048;-80
2023/12/09 08:11:55;;;;;;;18.20;9.48;;;3.50;99.90;;;3.78;100.00;100172.69;5033128;28;20045;-80
2023/12/09 08:14:21;;;;;;;18.20;9.13;;;3.60;99.90;;;3.83;100.00;100181.91;5032281;28;20053;-81
2023/12/09 08:16:47;;;;;;;17.63;9.45;;;3.60;99.90;;;3.87;100.00;100182.41;5033252;28;20042;-80
2023/12/09 08:19:13;;;;;;;18.73;9.10;;;3.60;99.90;;;3.79;100.00;100174.38;5024713;28;20080;-80
2023/12/09 08:21:39;;;;;;;17.13;8.70;;;3.70;99.90;;;3.84;100.00;100191.69;5020116;28;20033;-80
2023/12/09 08:24:05;;;;;;;19.55;8.63;;;3.70;99.90;;;3.89;100.00;100180.34;5024743;28;20123;-81
2023/12/09 08:26:30;;;;;;;17.33;8.25;;;3.70;99.90;;;4.02;100.00;100185.13;5028397;28;20041;-81
2023/12/09 08:28:56;;;;;;;21.20;8.50;;;3.80;99.90;;;4.17;100.00;100193.22;5019362;28;20065;-80
2023/12/09 08:31:22;;;;;;;16.38;8.30;;;3.90;99.90;;;4.03;100.00;100187.63;5044307;28;20029;-80
2023/12/09 08:33:47;;;;;;;21.00;9.75;;;3.90;99.90;;;4.12;100.00;100184.84;5032548;28;20037;-80
2023/12/09 08:36:13;;;;;;;16.00;8.45;;;4.00;99.90;;;4.38;100.00;100191.63;5021690;28;20042;-80
2023/12/09 08:38:39;;;;;;;20.15;8.25;;;4.10;99.90;;;4.30;100.00;100187.16;5026084;28;20038;-78
2023/12/09 08:41:05;;;;;;;19.00;8.77;;;4.20;99.90;;;4.42;100.00;100182.13;5023948;28;20040;-79
2023/12/09 08:43:31;;;;;;;17.27;8.98;;;4.30;99.90;;;4.45;100.00;100187.97;5016833;28;20061;-79
2023/12/09 08:45:56;;;;;;;18.40;7.20;;;4.40;99.90;;;4.57;100.00;100192.91;5025561;28;20041;-78
2023/12/09 08:48:23;;;;;;;14.40;7.60;;;4.50;99.90;;;4.65;100.00;100197.38;5032439;28;20041;-78
2023/12/09 08:50:49;;;;;;;17.40;6.83;;;4.50;99.90;;;4.63;100.00;100202.13;5034509;28;20053;-78
2023/12/09 08:53:15;;;;;;;13.40;7.13;;;4.60;99.90;;;4.67;100.00;100187.22;5019406;28;20034;-78
2023/12/09 08:55:41;;;;;;;12.45;6.53;;;4.60;99.90;;;4.81;100.00;100193.63;5014623;28;20145;-78
2023/12/09 08:58:07;;;;;;;15.65;6.70;;;4.70;99.90;;;4.93;100.00;100197.50;5028049;28;20626;-78
2023/12/09 09:00:33;;;;;;;12.63;6.80;;;4.70;99.90;;;4.94;100.00;100179.41;5029415;28;20049;-78
2023/12/09 09:02:59;;;;;;;13.77;7.13;;;4.80;99.90;;;5.10;100.00;100178.34;5025141;28;20045;-78
2023/12/09 09:05:24;;;;;;;12.77;6.97;;;4.90;99.90;;;5.06;100.00;100182.47;5029230;28;20100;-78
2023/12/09 09:07:51;;;;;;;15.13;6.68;;;4.90;99.90;;;5.17;100.00;100190.06;5028049;28;20033;-79
2023/12/09 09:10:18;;;;;;;15.38;6.97;;;5.00;99.90;;;5.25;100.00;100170.97;5030903;28;20136;-79
2023/12/09 09:12:45;;;;;;;16.02;7.15;;;5.00;99.90;;;5.24;100.00;100188.25;5021162;28;20043;-79
2023/12/09 09:15:12;;;;;;;15.07;7.30;;;5.00;99.90;;;5.42;100.00;100184.25;5025305;28;20033;-79
2023/12/09 09:17:39;;;;;;;13.40;6.60;;;5.20;99.90;;;5.38;100.00;100183.78;5016405;28;20042;-79
2023/12/09 09:20:06;;;;;;;14.52;6.53;;;5.30;99.90;;;5.51;100.00;100176.84;5026448;28;20034;-79
2023/12/09 09:22:31;;;;;;;13.48;5.93;;;5.40;99.90;;;5.76;100.00;100180.81;5023478;28;20388;-79
2023/12/09 09:24:58;;;;;;;11.10;5.78;;;5.60;99.90;;;5.89;100.00;100188.19;5015313;28;20030;-79
2023/12/09 09:27:24;;;;;;;10.75;5.50;;;5.70;99.90;;;6.12;100.00;100191.69;5024668;28;20449;-79
2023/12/09 09:29:50;;;;;;;15.18;5.63;;;5.90;99.90;;;6.11;100.00;100190.88;5023415;28;20042;-78
2023/12/09 09:32:16;;;;;;;10.80;5.63;;;6.20;99.90;;;6.14;100.00;100192.31;5018743;28;20071;-78
2023/12/09 09:34:42;;;;;;;10.55;5.18;;;6.40;99.90;;;6.54;100.00;100181.72;5030711;28;20041;-78
2023/12/09 09:37:09;;;;;;;10.27;5.22;;;6.80;99.90;;;6.87;100.00;100175.59;5026311;28;20049;-78
2023/12/09 09:39:35;;;;;;;10.02;5.07;;;7.40;99.90;;;7.13;100.00;100189.41;5031322;28;20086;-78
2023/12/09 09:42:36;;;;;;;15.63;5.10;;;7.60;99.90;;;7.68;100.00;100183.00;5026236;28;20033;-79
2023/12/09 09:45:18;;;;;;;12.98;5.60;;;8.10;99.90;;;8.27;100.00;100180.44;5022036;28;20038;-79
2023/12/09 09:47:48;;;;;;;10.77;4.78;;;8.60;99.90;;;7.97;100.00;100173.56;5023880;28;20060;-79
2023/12/09 09:50:23;;;;;;;11.60;5.20;;;8.60;99.90;;;7.33;100.00;100174.00;5021903;28;20073;-80
2023/12/09 09:52:51;;;;;;;9.48;5.07;;;7.80;99.90;;;6.82;100.00;100178.06;5024496;28;20053;-79
2023/12/09 09:55:19;;;;;;;;;;;7.00;99.90;;;6.55;100.00;100179.84;5031661;28;20485;-79
2023/12/09 09:57:46;;;;;;;11.45;5.30;;;6.60;99.90;;;6.42;100.00;100173.31;5030999;28;19913;-79
2023/12/09 10:00:14;;;;;;;11.27;5.32;;;6.30;99.90;;;6.19;100.00;100166.31;5030120;28;20517;-79
2023/12/09 10:02:48;;;;;;;12.63;5.93;;;6.20;99.90;;;6.28;100.00;100160.72;5030507;28;20061;-79
2023/12/09 10:05:17;;;;;;;11.05;5.40;;;6.10;99.90;;;6.13;100.00;100153.59;5029711;28;20037;-79
2023/12/09 10:07:46;;;;;;;17.35;5.43;;;6.10;99.90;;;6.04;100.00;100143.94;5026745;28;20120;-79
2023/12/09 10:10:16;;;;;;;10.20;5.68;;;6.00;99.90;;;6.00;100.00;100131.81;5021252;28;20054;-78